sensor_id;sensor_type;location;lat;lon;timestamp;P1;durP1;ratioP1;P2;durP2;ratioP2
11642;SDS011;5877;50.930;6.918;2023-02-08T00:03:33;9.93;;;7.10;;
11642;SDS011;5877;50.930;6.918;2023-02-08T00:08:24;12.40;;;7.27;;
11642;SDS011;5877;50.930;6.918;2023-02-08T00:13:17;12.87;;;7.10;;
11642;SDS011;5877;50.930;6.918;2023-02-08T00:18:09;9.17;;;6.50;;
11642;SDS011;5877;50.930;6.918;2023-02-08T00:23:01;9.40;;;6.67;;
11642;SDS011;5877;50.930;6.918;2023-02-08T00:27:53;12.13;;;7.10;;
11642;SDS011;5877;50.930;6.918;2023-02-08T00:32:44;11.13;;;6.80;;
11642;SDS011;5877;50.930;6.918;2023-02-08T00:37:36;8.83;;;6.30;;
11642;SDS011;5877;50.930;6.918;2023-02-08T00:42:28;9.30;;;6.63;;
11642;SDS011;5877;50.930;6.918;2023-02-08T00:47:20;10.27;;;6.93;;
11642;SDS011;5877;50.930;6.918;2023-02-08T00:52:12;10.87;;;7.40;;
11642;SDS011;5877;50.930;6.918;2023-02-08T00:57:03;9.17;;;6.50;;
11642;SDS011;5877;50.930;6.918;2023-02-08T01:01:55;8.73;;;6.27;;
11642;SDS011;5877;50.930;6.918;2023-02-08T01:06:47;12.27;;;6.67;;
11642;SDS011;5877;50.930;6.918;2023-02-08T01:11:38;9.77;;;6.70;;
11642;SDS011;5877;50.930;6.918;2023-02-08T01:16:31;11.07;;;7.33;;
11642;SDS011;5877;50.930;6.918;2023-02-08T01:21:25;12.07;;;7.27;;
11642;SDS011;5877;50.930;6.918;2023-02-08T01:26:19;8.97;;;6.60;;
11642;SDS011;5877;50.930;6.918;2023-02-08T01:31:13;9.47;;;6.87;;
11642;SDS011;5877;50.930;6.918;2023-02-08T01:36:10;10.43;;;7.13;;
11642;SDS011;5877;50.930;6.918;2023-02-08T01:41:06;9.30;;;7.73;;
11642;SDS011;5877;50.930;6.918;2023-02-08T01:46:01;9.63;;;7.07;;
11642;SDS011;5877;50.930;6.918;2023-02-08T01:50:54;11.67;;;7.40;;
11642;SDS011;5877;50.930;6.918;2023-02-08T01:55:52;8.80;;;6.53;;
11642;SDS011;5877;50.930;6.918;2023-02-08T02:00:47;11.63;;;8.00;;
11642;SDS011;5877;50.930;6.918;2023-02-08T02:05:44;9.93;;;7.30;;
11642;SDS011;5877;50.930;6.918;2023-02-08T02:10:39;9.67;;;7.37;;
11642;SDS011;5877;50.930;6.918;2023-02-08T02:15:33;11.30;;;6.80;;
11642;SDS011;5877;50.930;6.918;2023-02-08T02:20:47;10.27;;;7.03;;
11642;SDS011;5877;50.930;6.918;2023-02-08T02:35:59;9.23;;;7.53;;
11642;SDS011;5877;50.930;6.918;2023-02-08T02:56:38;11.53;;;6.57;;
11642;SDS011;5877;50.930;6.918;2023-02-08T03:01:33;11.23;;;7.43;;
11642;SDS011;5877;50.930;6.918;2023-02-08T03:11:35;11.13;;;7.80;;
11642;SDS011;5877;50.930;6.918;2023-02-08T03:22:18;10.07;;;7.30;;
11642;SDS011;5877;50.930;6.918;2023-02-08T03:32:19;10.97;;;7.27;;
11642;SDS011;5877;50.930;6.918;2023-02-08T03:37:20;12.50;;;7.33;;
11642;SDS011;5877;50.930;6.918;2023-02-08T03:42:18;14.43;;;7.27;;
11642;SDS011;5877;50.930;6.918;2023-02-08T03:47:15;11.17;;;7.80;;
11642;SDS011;5877;50.930;6.918;2023-02-08T03:52:12;12.13;;;8.17;;
11642;SDS011;5877;50.930;6.918;2023-02-08T03:57:06;13.57;;;8.17;;
11642;SDS011;5877;50.930;6.918;2023-02-08T04:02:06;9.87;;;6.87;;
11642;SDS011;5877;50.930;6.918;2023-02-08T04:07:02;10.43;;;7.47;;
11642;SDS011;5877;50.930;6.918;2023-02-08T04:11:55;11.80;;;7.67;;
11642;SDS011;5877;50.930;6.918;2023-02-08T04:16:46;11.53;;;7.13;;
11642;SDS011;5877;50.930;6.918;2023-02-08T04:21:38;9.83;;;7.13;;
11642;SDS011;5877;50.930;6.918;2023-02-08T04:26:30;11.47;;;8.27;;
11642;SDS011;5877;50.930;6.918;2023-02-08T04:31:21;10.53;;;7.70;;
11642;SDS011;5877;50.930;6.918;2023-02-08T04:36:13;12.43;;;8.03;;
11642;SDS011;5877;50.930;6.918;2023-02-08T04:41:05;11.77;;;7.90;;
11642;SDS011;5877;50.930;6.918;2023-02-08T04:45:56;11.43;;;7.70;;
11642;SDS011;5877;50.930;6.918;2023-02-08T04:50:48;10.33;;;7.07;;
11642;SDS011;5877;50.930;6.918;2023-02-08T04:55:40;9.33;;;6.13;;
11642;SDS011;5877;50.930;6.918;2023-02-08T05:00:32;7.90;;;6.57;;
11642;SDS011;5877;50.930;6.918;2023-02-08T05:05:25;9.60;;;7.17;;
11642;SDS011;5877;50.930;6.918;2023-02-08T05:10:18;10.67;;;7.00;;
11642;SDS011;5877;50.930;6.918;2023-02-08T05:15:10;9.37;;;6.97;;
11642;SDS011;5877;50.930;6.918;2023-02-08T05:20:02;10.43;;;6.93;;
11642;SDS011;5877;50.930;6.918;2023-02-08T05:24:54;10.40;;;7.37;;
11642;SDS011;5877;50.930;6.918;2023-02-08T05:29:46;12.33;;;7.23;;
11642;SDS011;5877;50.930;6.918;2023-02-08T05:34:38;10.40;;;7.00;;
11642;SDS011;5877;50.930;6.918;2023-02-08T05:39:30;10.43;;;7.03;;
11642;SDS011;5877;50.930;6.918;2023-02-08T05:44:24;10.10;;;7.00;;
11642;SDS011;5877;50.930;6.918;2023-02-08T05:49:16;13.93;;;8.60;;
11642;SDS011;5877;50.930;6.918;2023-02-08T05:54:07;10.73;;;7.00;;
11642;SDS011;5877;50.930;6.918;2023-02-08T05:58:59;10.93;;;7.13;;
11642;SDS011;5877;50.930;6.918;2023-02-08T06:03:52;12.40;;;8.07;;
11642;SDS011;5877;50.930;6.918;2023-02-08T06:08:44;11.00;;;7.30;;
11642;SDS011;5877;50.930;6.918;2023-02-08T06:13:36;12.40;;;7.37;;
11642;SDS011;5877;50.930;6.918;2023-02-08T06:18:29;11.77;;;6.97;;
11642;SDS011;5877;50.930;6.918;2023-02-08T06:23:21;11.37;;;7.23;;
11642;SDS011;5877;50.930;6.918;2023-02-08T06:28:13;13.37;;;7.60;;
11642;SDS011;5877;50.930;6.918;2023-02-08T06:33:05;14.70;;;7.40;;
11642;SDS011;5877;50.930;6.918;2023-02-08T06:37:57;11.60;;;7.33;;
11642;SDS011;5877;50.930;6.918;2023-02-08T06:42:49;15.13;;;7.33;;
11642;SDS011;5877;50.930;6.918;2023-02-08T06:47:41;13.73;;;7.53;;
11642;SDS011;5877;50.930;6.918;2023-02-08T06:52:32;11.97;;;7.10;;
11642;SDS011;5877;50.930;6.918;2023-02-08T06:57:24;10.37;;;6.77;;
11642;SDS011;5877;50.930;6.918;2023-02-08T07:02:17;10.47;;;6.90;;
11642;SDS011;5877;50.930;6.918;2023-02-08T07:07:11;13.77;;;7.13;;
11642;SDS011;5877;50.930;6.918;2023-02-08T07:12:03;10.57;;;7.53;;
11642;SDS011;5877;50.930;6.918;2023-02-08T07:16:55;11.33;;;7.60;;
11642;SDS011;5877;50.930;6.918;2023-02-08T07:21:47;14.53;;;7.53;;
11642;SDS011;5877;50.930;6.918;2023-02-08T07:26:39;10.77;;;6.53;;
11642;SDS011;5877;50.930;6.918;2023-02-08T07:31:30;12.47;;;8.00;;
11642;SDS011;5877;50.930;6.918;2023-02-08T07:36:22;11.57;;;6.63;;
11642;SDS011;5877;50.930;6.918;2023-02-08T07:41:14;9.47;;;6.83;;
11642;SDS011;5877;50.930;6.918;2023-02-08T07:46:13;11.93;;;7.03;;
11642;SDS011;5877;50.930;6.918;2023-02-08T07:51:07;14.23;;;7.63;;
11642;SDS011;5877;50.930;6.918;2023-02-08T07:56:00;13.67;;;7.80;;
11642;SDS011;5877;50.930;6.918;2023-02-08T08:00:52;13.97;;;8.20;;
11642;SDS011;5877;50.930;6.918;2023-02-08T08:05:43;12.33;;;7.40;;
11642;SDS011;5877;50.930;6.918;2023-02-08T08:10:35;12.20;;;6.97;;
11642;SDS011;5877;50.930;6.918;2023-02-08T08:15:27;11.57;;;7.87;;
11642;SDS011;5877;50.930;6.918;2023-02-08T08:20:20;12.50;;;7.20;;
11642;SDS011;5877;50.930;6.918;2023-02-08T08:25:12;10.67;;;6.10;;
11642;SDS011;5877;50.930;6.918;2023-02-08T08:30:11;7.80;;;6.30;;
11642;SDS011;5877;50.930;6.918;2023-02-08T08:35:05;9.17;;;5.93;;
11642;SDS011;5877;50.930;6.918;2023-02-08T08:39:57;11.93;;;6.03;;
11642;SDS011;5877;50.930;6.918;2023-02-08T08:44:49;10.33;;;6.03;;
11642;SDS011;5877;50.930;6.918;2023-02-08T08:49:40;7.50;;;6.03;;
11642;SDS011;5877;50.930;6.918;2023-02-08T08:54:34;10.40;;;6.10;;
11642;SDS011;5877;50.930;6.918;2023-02-08T08:59:26;9.33;;;6.03;;
11642;SDS011;5877;50.930;6.918;2023-02-08T09:04:18;10.20;;;6.43;;
11642;SDS011;5877;50.930;6.918;2023-02-08T09:09:13;11.00;;;6.93;;
11642;SDS011;5877;50.930;6.918;2023-02-08T09:14:04;9.27;;;6.27;;
11642;SDS011;5877;50.930;6.918;2023-02-08T09:18:59;9.57;;;6.50;;
11642;SDS011;5877;50.930;6.918;2023-02-08T09:23:52;10.50;;;7.10;;
11642;SDS011;5877;50.930;6.918;2023-02-08T09:28:44;8.40;;;6.70;;
11642;SDS011;5877;50.930;6.918;2023-02-08T09:33:36;9.03;;;6.40;;
11642;SDS011;5877;50.930;6.918;2023-02-08T09:38:27;9.97;;;6.70;;
11642;SDS011;5877;50.930;6.918;2023-02-08T09:48:36;10.23;;;6.07;;
11642;SDS011;5877;50.930;6.918;2023-02-08T09:53:41;8.20;;;6.07;;
11642;SDS011;5877;50.930;6.918;2023-02-08T09:58:59;7.63;;;5.73;;
11642;SDS011;5877;50.930;6.918;2023-02-08T10:03:52;9.97;;;5.90;;
11642;SDS011;5877;50.930;6.918;2023-02-08T10:08:49;11.47;;;6.20;;
11642;SDS011;5877;50.930;6.918;2023-02-08T10:19:20;8.77;;;5.90;;
11642;SDS011;5877;50.930;6.918;2023-02-08T10:24:30;8.60;;;6.47;;
11642;SDS011;5877;50.930;6.918;2023-02-08T10:29:51;8.83;;;6.30;;
11642;SDS011;5877;50.930;6.918;2023-02-08T10:34:45;9.67;;;5.80;;
11642;SDS011;5877;50.930;6.918;2023-02-08T10:39:41;9.07;;;6.10;;
11642;SDS011;5877;50.930;6.918;2023-02-08T10:54:48;7.60;;;5.67;;
11642;SDS011;5877;50.930;6.918;2023-02-08T11:05:14;8.83;;;6.23;;
11642;SDS011;5877;50.930;6.918;2023-02-08T11:15:19;7.63;;;5.63;;
11642;SDS011;5877;50.930;6.918;2023-02-08T11:20:21;8.83;;;6.13;;
11642;SDS011;5877;50.930;6.918;2023-02-08T11:30:51;8.40;;;5.33;;
11642;SDS011;5877;50.930;6.918;2023-02-08T11:35:53;10.70;;;5.53;;
11642;SDS011;5877;50.930;6.918;2023-02-08T11:40:45;9.37;;;5.30;;
11642;SDS011;5877;50.930;6.918;2023-02-08T11:45:37;6.37;;;4.87;;
11642;SDS011;5877;50.930;6.918;2023-02-08T11:50:30;6.13;;;4.73;;
11642;SDS011;5877;50.930;6.918;2023-02-08T11:55:25;5.50;;;4.33;;
11642;SDS011;5877;50.930;6.918;2023-02-08T12:00:19;6.50;;;4.43;;
11642;SDS011;5877;50.930;6.918;2023-02-08T12:05:17;5.97;;;4.70;;
11642;SDS011;5877;50.930;6.918;2023-02-08T12:26:17;5.30;;;4.00;;
11642;SDS011;5877;50.930;6.918;2023-02-08T12:31:25;6.77;;;4.27;;
11642;SDS011;5877;50.930;6.918;2023-02-08T12:41:30;4.57;;;3.67;;
11642;SDS011;5877;50.930;6.918;2023-02-08T12:56:34;6.37;;;3.80;;
11642;SDS011;5877;50.930;6.918;2023-02-08T13:01:33;7.50;;;3.80;;
11642;SDS011;5877;50.930;6.918;2023-02-08T13:06:44;4.70;;;3.53;;
11642;SDS011;5877;50.930;6.918;2023-02-08T13:11:51;4.63;;;3.43;;
11642;SDS011;5877;50.930;6.918;2023-02-08T13:16:49;4.63;;;3.13;;
11642;SDS011;5877;50.930;6.918;2023-02-08T13:21:45;5.80;;;3.13;;
11642;SDS011;5877;50.930;6.918;2023-02-08T13:26:37;4.50;;;3.30;;
11642;SDS011;5877;50.930;6.918;2023-02-08T13:31:31;6.60;;;3.40;;
11642;SDS011;5877;50.930;6.918;2023-02-08T13:36:33;5.23;;;3.40;;
11642;SDS011;5877;50.930;6.918;2023-02-08T13:41:27;4.20;;;3.10;;
11642;SDS011;5877;50.930;6.918;2023-02-08T13:46:21;5.40;;;3.17;;
11642;SDS011;5877;50.930;6.918;2023-02-08T14:01:39;5.43;;;3.20;;
11642;SDS011;5877;50.930;6.918;2023-02-08T14:07:11;5.03;;;3.30;;
11642;SDS011;5877;50.930;6.918;2023-02-08T14:12:15;4.30;;;2.70;;
11642;SDS011;5877;50.930;6.918;2023-02-08T14:17:10;3.30;;;2.60;;
11642;SDS011;5877;50.930;6.918;2023-02-08T14:27:48;3.33;;;2.20;;
11642;SDS011;5877;50.930;6.918;2023-02-08T14:32:22;2.60;;;1.80;;
11642;SDS011;5877;50.930;6.918;2023-02-08T14:42:11;3.27;;;1.63;;
11642;SDS011;5877;50.930;6.918;2023-02-08T14:47:14;3.00;;;1.97;;
11642;SDS011;5877;50.930;6.918;2023-02-08T14:52:27;2.13;;;1.70;;
11642;SDS011;5877;50.930;6.918;2023-02-08T14:57:24;2.37;;;1.83;;
11642;SDS011;5877;50.930;6.918;2023-02-08T15:02:19;3.00;;;2.00;;
11642;SDS011;5877;50.930;6.918;2023-02-08T15:12:38;2.10;;;1.43;;
11642;SDS011;5877;50.930;6.918;2023-02-08T15:22:35;3.77;;;1.80;;
11642;SDS011;5877;50.930;6.918;2023-02-08T15:27:32;4.87;;;2.13;;
11642;SDS011;5877;50.930;6.918;2023-02-08T15:32:25;3.70;;;2.27;;
11642;SDS011;5877;50.930;6.918;2023-02-08T15:37:18;3.50;;;2.70;;
11642;SDS011;5877;50.930;6.918;2023-02-08T15:42:15;2.87;;;1.90;;
11642;SDS011;5877;50.930;6.918;2023-02-08T15:47:08;2.80;;;1.90;;
11642;SDS011;5877;50.930;6.918;2023-02-08T15:52:07;3.10;;;2.40;;
11642;SDS011;5877;50.930;6.918;2023-02-08T15:57:08;3.20;;;2.03;;
11642;SDS011;5877;50.930;6.918;2023-02-08T16:02:27;2.87;;;1.83;;
11642;SDS011;5877;50.930;6.918;2023-02-08T16:07:26;3.30;;;2.20;;
11642;SDS011;5877;50.930;6.918;2023-02-08T16:12:22;3.50;;;2.30;;
11642;SDS011;5877;50.930;6.918;2023-02-08T16:17:37;3.80;;;2.30;;
11642;SDS011;5877;50.930;6.918;2023-02-08T16:22:32;2.77;;;2.27;;
11642;SDS011;5877;50.930;6.918;2023-02-08T16:27:24;4.23;;;2.30;;
11642;SDS011;5877;50.930;6.918;2023-02-08T16:32:20;4.70;;;2.60;;
11642;SDS011;5877;50.930;6.918;2023-02-08T16:37:22;4.63;;;2.87;;
11642;SDS011;5877;50.930;6.918;2023-02-08T16:47:25;6.07;;;3.47;;
11642;SDS011;5877;50.930;6.918;2023-02-08T16:52:19;4.73;;;3.03;;
11642;SDS011;5877;50.930;6.918;2023-02-08T16:57:11;5.33;;;3.43;;
11642;SDS011;5877;50.930;6.918;2023-02-08T17:02:02;4.97;;;3.50;;
11642;SDS011;5877;50.930;6.918;2023-02-08T17:06:59;5.10;;;3.77;;
11642;SDS011;5877;50.930;6.918;2023-02-08T17:11:51;5.90;;;3.83;;
11642;SDS011;5877;50.930;6.918;2023-02-08T17:16:42;6.77;;;4.03;;
11642;SDS011;5877;50.930;6.918;2023-02-08T17:21:34;4.53;;;3.70;;
11642;SDS011;5877;50.930;6.918;2023-02-08T17:26:27;5.97;;;4.20;;
11642;SDS011;5877;50.930;6.918;2023-02-08T17:31:22;7.63;;;4.87;;
11642;SDS011;5877;50.930;6.918;2023-02-08T17:36:14;6.40;;;4.47;;
11642;SDS011;5877;50.930;6.918;2023-02-08T17:41:15;7.40;;;4.30;;
11642;SDS011;5877;50.930;6.918;2023-02-08T17:46:09;8.10;;;5.17;;
11642;SDS011;5877;50.930;6.918;2023-02-08T17:51:06;8.63;;;5.10;;
11642;SDS011;5877;50.930;6.918;2023-02-08T17:55:59;9.33;;;5.17;;
11642;SDS011;5877;50.930;6.918;2023-02-08T18:00:50;7.33;;;4.80;;
11642;SDS011;5877;50.930;6.918;2023-02-08T18:05:42;5.53;;;4.60;;
11642;SDS011;5877;50.930;6.918;2023-02-08T18:10:34;6.60;;;4.90;;
11642;SDS011;5877;50.930;6.918;2023-02-08T18:15:25;6.93;;;4.53;;
11642;SDS011;5877;50.930;6.918;2023-02-08T18:20:17;7.13;;;4.77;;
11642;SDS011;5877;50.930;6.918;2023-02-08T18:25:09;8.33;;;5.37;;
11642;SDS011;5877;50.930;6.918;2023-02-08T18:30:02;7.77;;;5.13;;
11642;SDS011;5877;50.930;6.918;2023-02-08T18:34:54;8.13;;;5.50;;
11642;SDS011;5877;50.930;6.918;2023-02-08T18:39:46;7.47;;;5.53;;
11642;SDS011;5877;50.930;6.918;2023-02-08T18:44:38;9.93;;;6.27;;
11642;SDS011;5877;50.930;6.918;2023-02-08T18:49:30;7.97;;;6.00;;
11642;SDS011;5877;50.930;6.918;2023-02-08T18:54:22;8.73;;;5.80;;
11642;SDS011;5877;50.930;6.918;2023-02-08T18:59:14;9.47;;;5.53;;
11642;SDS011;5877;50.930;6.918;2023-02-08T19:04:05;9.30;;;6.20;;
11642;SDS011;5877;50.930;6.918;2023-02-08T19:08:58;8.97;;;6.30;;
11642;SDS011;5877;50.930;6.918;2023-02-08T19:13:54;10.57;;;6.77;;
11642;SDS011;5877;50.930;6.918;2023-02-08T19:18:46;12.40;;;6.33;;
11642;SDS011;5877;50.930;6.918;2023-02-08T19:23:38;9.37;;;6.57;;
11642;SDS011;5877;50.930;6.918;2023-02-08T19:28:31;9.33;;;6.77;;
11642;SDS011;5877;50.930;6.918;2023-02-08T19:33:24;9.43;;;6.00;;
11642;SDS011;5877;50.930;6.918;2023-02-08T19:38:15;12.13;;;6.93;;
11642;SDS011;5877;50.930;6.918;2023-02-08T19:43:09;11.97;;;6.60;;
11642;SDS011;5877;50.930;6.918;2023-02-08T19:48:00;10.00;;;6.40;;
11642;SDS011;5877;50.930;6.918;2023-02-08T19:52:52;8.93;;;6.00;;
11642;SDS011;5877;50.930;6.918;2023-02-08T19:57:44;10.30;;;6.57;;
11642;SDS011;5877;50.930;6.918;2023-02-08T20:02:36;11.63;;;6.57;;
11642;SDS011;5877;50.930;6.918;2023-02-08T20:07:28;8.90;;;6.00;;
11642;SDS011;5877;50.930;6.918;2023-02-08T20:12:20;13.27;;;6.90;;
11642;SDS011;5877;50.930;6.918;2023-02-08T20:17:12;9.13;;;6.33;;
11642;SDS011;5877;50.930;6.918;2023-02-08T20:22:04;11.83;;;6.90;;
11642;SDS011;5877;50.930;6.918;2023-02-08T20:26:56;11.43;;;6.33;;
11642;SDS011;5877;50.930;6.918;2023-02-08T20:31:48;9.87;;;6.50;;
11642;SDS011;5877;50.930;6.918;2023-02-08T20:36:43;10.57;;;6.30;;
11642;SDS011;5877;50.930;6.918;2023-02-08T20:41:55;10.63;;;7.03;;
11642;SDS011;5877;50.930;6.918;2023-02-08T20:46:47;11.37;;;6.33;;
11642;SDS011;5877;50.930;6.918;2023-02-08T20:51:39;8.67;;;6.30;;
11642;SDS011;5877;50.930;6.918;2023-02-08T20:56:31;15.77;;;7.10;;
11642;SDS011;5877;50.930;6.918;2023-02-08T21:01:26;11.07;;;6.87;;
11642;SDS011;5877;50.930;6.918;2023-02-08T21:06:20;9.87;;;6.53;;
11642;SDS011;5877;50.930;6.918;2023-02-08T21:11:21;8.97;;;6.57;;
11642;SDS011;5877;50.930;6.918;2023-02-08T21:16:15;11.40;;;6.67;;
11642;SDS011;5877;50.930;6.918;2023-02-08T21:21:08;11.07;;;7.07;;
11642;SDS011;5877;50.930;6.918;2023-02-08T21:26:01;10.57;;;6.70;;
11642;SDS011;5877;50.930;6.918;2023-02-08T21:30:57;9.50;;;6.67;;
11642;SDS011;5877;50.930;6.918;2023-02-08T21:35:51;11.80;;;6.93;;
11642;SDS011;5877;50.930;6.918;2023-02-08T21:40:43;10.73;;;6.90;;
11642;SDS011;5877;50.930;6.918;2023-02-08T21:45:35;9.97;;;6.43;;
11642;SDS011;5877;50.930;6.918;2023-02-08T21:50:27;9.77;;;6.33;;
11642;SDS011;5877;50.930;6.918;2023-02-08T21:55:42;9.87;;;5.93;;
11642;SDS011;5877;50.930;6.918;2023-02-08T22:00:35;10.40;;;5.77;;
11642;SDS011;5877;50.930;6.918;2023-02-08T22:05:27;11.47;;;6.37;;
11642;SDS011;5877;50.930;6.918;2023-02-08T22:10:20;9.60;;;5.80;;
11642;SDS011;5877;50.930;6.918;2023-02-08T22:15:18;9.97;;;6.03;;
11642;SDS011;5877;50.930;6.918;2023-02-08T22:20:12;9.47;;;5.73;;
11642;SDS011;5877;50.930;6.918;2023-02-08T22:25:05;9.17;;;5.97;;
11642;SDS011;5877;50.930;6.918;2023-02-08T22:29:57;9.63;;;6.10;;
11642;SDS011;5877;50.930;6.918;2023-02-08T22:34:49;8.70;;;5.60;;
11642;SDS011;5877;50.930;6.918;2023-02-08T22:39:41;9.13;;;6.10;;
11642;SDS011;5877;50.930;6.918;2023-02-08T22:44:34;10.97;;;6.20;;
11642;SDS011;5877;50.930;6.918;2023-02-08T22:49:26;10.33;;;5.93;;
11642;SDS011;5877;50.930;6.918;2023-02-08T22:54:19;8.53;;;6.07;;
11642;SDS011;5877;50.930;6.918;2023-02-08T22:59:11;12.33;;;7.43;;
11642;SDS011;5877;50.930;6.918;2023-02-08T23:04:03;10.90;;;6.53;;
11642;SDS011;5877;50.930;6.918;2023-02-08T23:08:56;9.33;;;6.07;;
11642;SDS011;5877;50.930;6.918;2023-02-08T23:13:49;9.37;;;6.23;;
11642;SDS011;5877;50.930;6.918;2023-02-08T23:18:41;9.57;;;6.70;;
11642;SDS011;5877;50.930;6.918;2023-02-08T23:23:33;9.73;;;6.50;;
11642;SDS011;5877;50.930;6.918;2023-02-08T23:28:25;8.83;;;6.17;;
11642;SDS011;5877;50.930;6.918;2023-02-08T23:33:16;8.80;;;5.73;;
11642;SDS011;5877;50.930;6.918;2023-02-08T23:38:08;9.33;;;6.07;;
11642;SDS011;5877;50.930;6.918;2023-02-08T23:43:00;11.57;;;5.90;;
11642;SDS011;5877;50.930;6.918;2023-02-08T23:47:52;9.80;;;5.93;;
11642;SDS011;5877;50.930;6.918;2023-02-08T23:52:44;9.97;;;5.73;;
11642;SDS011;5877;50.930;6.918;2023-02-08T23:57:36;10.73;;;6.30;;
